sensor_id;sensor_type;location;lat;lon;timestamp;temperature;humidity
20915;DHT22;10617;52.032;5.298;2023-07-31T00:00:03;16.20;99.90
20915;DHT22;10617;52.032;5.298;2023-07-31T00:04:05;16.20;99.90
20915;DHT22;10617;52.032;5.298;2023-07-31T00:08:07;16.20;99.90
20915;DHT22;10617;52.032;5.298;2023-07-31T00:12:08;16.30;99.90
20915;DHT22;10617;52.032;5.298;2023-07-31T00:16:10;16.30;99.90
20915;DHT22;10617;52.032;5.298;2023-07-31T00:20:12;16.40;99.90
20915;DHT22;10617;52.032;5.298;2023-07-31T00:24:13;16.40;99.90
20915;DHT22;10617;52.032;5.298;2023-07-31T00:28:15;16.50;99.90
20915;DHT22;10617;52.032;5.298;2023-07-31T00:32:17;16.60;99.90
20915;DHT22;10617;52.032;5.298;2023-07-31T00:36:19;16.80;99.90
20915;DHT22;10617;52.032;5.298;2023-07-31T00:40:20;16.90;99.90
20915;DHT22;10617;52.032;5.298;2023-07-31T00:44:22;16.90;99.90
20915;DHT22;10617;52.032;5.298;2023-07-31T00:48:24;17.00;99.90
20915;DHT22;10617;52.032;5.298;2023-07-31T00:52:26;17.00;99.90
20915;DHT22;10617;52.032;5.298;2023-07-31T00:56:28;17.10;99.90
20915;DHT22;10617;52.032;5.298;2023-07-31T01:00:30;17.10;99.90
20915;DHT22;10617;52.032;5.298;2023-07-31T01:04:31;17.10;99.90
20915;DHT22;10617;52.032;5.298;2023-07-31T01:12:53;17.10;99.90
20915;DHT22;10617;52.032;5.298;2023-07-31T01:16:57;17.10;99.90
20915;DHT22;10617;52.032;5.298;2023-07-31T01:21:03;17.10;99.90
20915;DHT22;10617;52.032;5.298;2023-07-31T01:29:32;17.10;99.90
20915;DHT22;10617;52.032;5.298;2023-07-31T01:33:34;17.10;99.90
20915;DHT22;10617;52.032;5.298;2023-07-31T01:37:36;17.10;99.90
20915;DHT22;10617;52.032;5.298;2023-07-31T01:41:38;17.10;99.90
20915;DHT22;10617;52.032;5.298;2023-07-31T01:45:39;17.10;99.90
20915;DHT22;10617;52.032;5.298;2023-07-31T01:49:41;17.10;99.90
20915;DHT22;10617;52.032;5.298;2023-07-31T01:53:43;17.00;99.90
20915;DHT22;10617;52.032;5.298;2023-07-31T01:57:44;17.00;99.90
20915;DHT22;10617;52.032;5.298;2023-07-31T02:01:46;17.00;99.90
20915;DHT22;10617;52.032;5.298;2023-07-31T02:05:48;16.90;99.90
20915;DHT22;10617;52.032;5.298;2023-07-31T02:09:50;16.90;99.90
20915;DHT22;10617;52.032;5.298;2023-07-31T02:13:52;16.90;99.90
20915;DHT22;10617;52.032;5.298;2023-07-31T02:17:53;16.90;99.90
20915;DHT22;10617;52.032;5.298;2023-07-31T02:21:55;16.90;99.90
20915;DHT22;10617;52.032;5.298;2023-07-31T02:25:57;16.90;99.90
20915;DHT22;10617;52.032;5.298;2023-07-31T02:29:58;16.90;99.90
20915;DHT22;10617;52.032;5.298;2023-07-31T02:34:01;16.80;99.90
20915;DHT22;10617;52.032;5.298;2023-07-31T02:38:02;16.90;99.90
20915;DHT22;10617;52.032;5.298;2023-07-31T02:42:04;16.90;99.90
20915;DHT22;10617;52.032;5.298;2023-07-31T02:46:06;16.90;99.90
20915;DHT22;10617;52.032;5.298;2023-07-31T02:50:08;16.90;99.90
20915;DHT22;10617;52.032;5.298;2023-07-31T02:54:09;16.90;99.90
20915;DHT22;10617;52.032;5.298;2023-07-31T02:58:11;16.80;99.90
20915;DHT22;10617;52.032;5.298;2023-07-31T03:27:12;16.80;99.90
20915;DHT22;10617;52.032;5.298;2023-07-31T03:31:14;16.80;99.90
20915;DHT22;10617;52.032;5.298;2023-07-31T03:35:15;16.80;99.90
20915;DHT22;10617;52.032;5.298;2023-07-31T03:39:17;16.80;99.90
20915;DHT22;10617;52.032;5.298;2023-07-31T03:43:19;16.80;99.90
20915;DHT22;10617;52.032;5.298;2023-07-31T03:47:20;16.80;99.90
20915;DHT22;10617;52.032;5.298;2023-07-31T03:51:22;16.80;99.90
20915;DHT22;10617;52.032;5.298;2023-07-31T03:55:24;16.80;99.90
20915;DHT22;10617;52.032;5.298;2023-07-31T03:59:25;16.80;99.90
20915;DHT22;10617;52.032;5.298;2023-07-31T04:03:27;16.80;99.90
20915;DHT22;10617;52.032;5.298;2023-07-31T04:07:29;16.80;99.90
20915;DHT22;10617;52.032;5.298;2023-07-31T04:11:30;16.80;99.90
20915;DHT22;10617;52.032;5.298;2023-07-31T04:15:32;16.80;99.90
20915;DHT22;10617;52.032;5.298;2023-07-31T04:24:30;16.90;99.90
20915;DHT22;10617;52.032;5.298;2023-07-31T04:28:32;16.90;99.90
20915;DHT22;10617;52.032;5.298;2023-07-31T04:32:34;16.90;99.90
20915;DHT22;10617;52.032;5.298;2023-07-31T04:36:36;16.90;99.90
20915;DHT22;10617;52.032;5.298;2023-07-31T04:40:39;16.90;99.90
20915;DHT22;10617;52.032;5.298;2023-07-31T04:44:40;16.90;99.90
20915;DHT22;10617;52.032;5.298;2023-07-31T04:48:42;16.90;99.90
20915;DHT22;10617;52.032;5.298;2023-07-31T04:52:44;16.90;99.90
20915;DHT22;10617;52.032;5.298;2023-07-31T04:56:45;16.90;99.90
20915;DHT22;10617;52.032;5.298;2023-07-31T05:00:47;16.80;99.90
20915;DHT22;10617;52.032;5.298;2023-07-31T05:04:49;16.90;99.90
20915;DHT22;10617;52.032;5.298;2023-07-31T05:08:50;16.90;99.90
20915;DHT22;10617;52.032;5.298;2023-07-31T05:12:52;16.80;99.90
20915;DHT22;10617;52.032;5.298;2023-07-31T05:16:54;16.80;99.90
20915;DHT22;10617;52.032;5.298;2023-07-31T05:20:55;16.70;99.90
20915;DHT22;10617;52.032;5.298;2023-07-31T05:24:57;16.60;99.90
20915;DHT22;10617;52.032;5.298;2023-07-31T05:28:59;16.50;99.90
20915;DHT22;10617;52.032;5.298;2023-07-31T05:33:00;16.50;99.90
20915;DHT22;10617;52.032;5.298;2023-07-31T05:37:02;16.40;99.90
20915;DHT22;10617;52.032;5.298;2023-07-31T05:41:04;16.40;99.90
20915;DHT22;10617;52.032;5.298;2023-07-31T05:45:06;16.40;99.90
20915;DHT22;10617;52.032;5.298;2023-07-31T05:49:08;16.40;99.90
20915;DHT22;10617;52.032;5.298;2023-07-31T05:53:09;16.40;99.90
20915;DHT22;10617;52.032;5.298;2023-07-31T05:57:11;16.40;99.90
20915;DHT22;10617;52.032;5.298;2023-07-31T06:01:13;16.40;99.90
20915;DHT22;10617;52.032;5.298;2023-07-31T06:05:16;16.40;99.90
20915;DHT22;10617;52.032;5.298;2023-07-31T06:09:18;16.40;99.90
20915;DHT22;10617;52.032;5.298;2023-07-31T06:13:19;16.40;99.90
20915;DHT22;10617;52.032;5.298;2023-07-31T06:17:21;16.40;99.90
20915;DHT22;10617;52.032;5.298;2023-07-31T06:21:22;16.40;99.90
20915;DHT22;10617;52.032;5.298;2023-07-31T06:25:24;16.40;99.90
20915;DHT22;10617;52.032;5.298;2023-07-31T06:29:26;16.40;99.90
20915;DHT22;10617;52.032;5.298;2023-07-31T06:33:27;16.40;99.90
20915;DHT22;10617;52.032;5.298;2023-07-31T06:37:29;16.50;99.90
20915;DHT22;10617;52.032;5.298;2023-07-31T06:41:31;16.50;99.90
20915;DHT22;10617;52.032;5.298;2023-07-31T06:45:33;16.50;99.90
20915;DHT22;10617;52.032;5.298;2023-07-31T06:49:35;16.50;99.90
20915;DHT22;10617;52.032;5.298;2023-07-31T06:53:36;16.50;99.90
20915;DHT22;10617;52.032;5.298;2023-07-31T06:57:38;16.60;99.90
20915;DHT22;10617;52.032;5.298;2023-07-31T07:01:39;16.60;99.90
20915;DHT22;10617;52.032;5.298;2023-07-31T07:05:41;16.60;99.90
20915;DHT22;10617;52.032;5.298;2023-07-31T07:09:43;16.70;99.90
20915;DHT22;10617;52.032;5.298;2023-07-31T07:13:45;16.70;99.90
20915;DHT22;10617;52.032;5.298;2023-07-31T07:17:47;16.80;99.90
20915;DHT22;10617;52.032;5.298;2023-07-31T07:21:48;16.80;99.90
20915;DHT22;10617;52.032;5.298;2023-07-31T07:25:50;16.80;99.90
20915;DHT22;10617;52.032;5.298;2023-07-31T07:29:53;16.80;99.90
20915;DHT22;10617;52.032;5.298;2023-07-31T07:33:54;16.80;99.90
20915;DHT22;10617;52.032;5.298;2023-07-31T07:37:57;16.80;99.90
20915;DHT22;10617;52.032;5.298;2023-07-31T07:41:59;16.90;99.90
20915;DHT22;10617;52.032;5.298;2023-07-31T07:46:00;16.90;99.90
20915;DHT22;10617;52.032;5.298;2023-07-31T07:50:02;16.90;99.90
20915;DHT22;10617;52.032;5.298;2023-07-31T07:54:04;17.00;99.90
20915;DHT22;10617;52.032;5.298;2023-07-31T07:58:05;17.00;99.90
20915;DHT22;10617;52.032;5.298;2023-07-31T08:02:07;17.00;99.90
20915;DHT22;10617;52.032;5.298;2023-07-31T08:06:09;17.10;99.90
20915;DHT22;10617;52.032;5.298;2023-07-31T08:10:11;17.00;99.90
20915;DHT22;10617;52.032;5.298;2023-07-31T08:14:13;17.10;99.90
20915;DHT22;10617;52.032;5.298;2023-07-31T08:18:14;17.10;99.90
20915;DHT22;10617;52.032;5.298;2023-07-31T08:22:17;17.10;99.90
20915;DHT22;10617;52.032;5.298;2023-07-31T08:26:19;17.20;99.90
20915;DHT22;10617;52.032;5.298;2023-07-31T08:30:21;17.30;99.90
20915;DHT22;10617;52.032;5.298;2023-07-31T08:34:23;17.30;99.90
20915;DHT22;10617;52.032;5.298;2023-07-31T08:38:25;17.30;99.90
20915;DHT22;10617;52.032;5.298;2023-07-31T08:42:27;17.30;99.90
20915;DHT22;10617;52.032;5.298;2023-07-31T08:46:30;17.30;99.90
20915;DHT22;10617;52.032;5.298;2023-07-31T08:50:32;17.30;99.90
20915;DHT22;10617;52.032;5.298;2023-07-31T08:54:34;17.40;99.90
20915;DHT22;10617;52.032;5.298;2023-07-31T08:58:36;17.40;99.90
20915;DHT22;10617;52.032;5.298;2023-07-31T09:06:53;17.40;99.90
20915;DHT22;10617;52.032;5.298;2023-07-31T09:11:01;17.50;99.90
20915;DHT22;10617;52.032;5.298;2023-07-31T09:15:05;17.40;99.90
20915;DHT22;10617;52.032;5.298;2023-07-31T09:19:06;17.40;99.90
20915;DHT22;10617;52.032;5.298;2023-07-31T09:23:12;17.40;99.90
20915;DHT22;10617;52.032;5.298;2023-07-31T09:27:13;17.50;99.90
20915;DHT22;10617;52.032;5.298;2023-07-31T09:31:15;17.60;99.90
20915;DHT22;10617;52.032;5.298;2023-07-31T09:35:21;17.60;99.90
20915;DHT22;10617;52.032;5.298;2023-07-31T09:39:23;17.60;99.90
20915;DHT22;10617;52.032;5.298;2023-07-31T09:43:24;17.70;99.90
20915;DHT22;10617;52.032;5.298;2023-07-31T09:47:26;17.80;99.90
20915;DHT22;10617;52.032;5.298;2023-07-31T09:51:28;17.80;99.90
20915;DHT22;10617;52.032;5.298;2023-07-31T09:55:30;17.90;99.90
20915;DHT22;10617;52.032;5.298;2023-07-31T09:59:33;17.90;99.90
20915;DHT22;10617;52.032;5.298;2023-07-31T10:03:34;17.80;99.90
20915;DHT22;10617;52.032;5.298;2023-07-31T10:07:37;17.90;99.90
20915;DHT22;10617;52.032;5.298;2023-07-31T10:11:43;17.90;99.90
20915;DHT22;10617;52.032;5.298;2023-07-31T10:15:51;17.90;99.90
20915;DHT22;10617;52.032;5.298;2023-07-31T10:19:53;18.00;99.90
20915;DHT22;10617;52.032;5.298;2023-07-31T10:23:55;18.10;99.90
20915;DHT22;10617;52.032;5.298;2023-07-31T10:27:57;18.10;99.90
20915;DHT22;10617;52.032;5.298;2023-07-31T10:31:59;18.10;99.90
20915;DHT22;10617;52.032;5.298;2023-07-31T10:36:16;18.10;99.90
20915;DHT22;10617;52.032;5.298;2023-07-31T10:40:19;18.20;99.90
20915;DHT22;10617;52.032;5.298;2023-07-31T10:44:24;18.20;99.90
20915;DHT22;10617;52.032;5.298;2023-07-31T10:48:26;18.20;99.90
20915;DHT22;10617;52.032;5.298;2023-07-31T10:52:34;18.30;99.90
20915;DHT22;10617;52.032;5.298;2023-07-31T10:56:37;18.30;99.90
20915;DHT22;10617;52.032;5.298;2023-07-31T11:00:43;18.30;99.90
20915;DHT22;10617;52.032;5.298;2023-07-31T11:04:45;18.40;99.90
20915;DHT22;10617;52.032;5.298;2023-07-31T11:09:06;18.30;99.90
20915;DHT22;10617;52.032;5.298;2023-07-31T11:13:08;18.20;99.90
20915;DHT22;10617;52.032;5.298;2023-07-31T11:17:10;18.20;99.90
20915;DHT22;10617;52.032;5.298;2023-07-31T11:21:12;18.10;99.90
20915;DHT22;10617;52.032;5.298;2023-07-31T11:25:14;18.10;99.90
20915;DHT22;10617;52.032;5.298;2023-07-31T11:29:16;18.20;99.90
20915;DHT22;10617;52.032;5.298;2023-07-31T11:33:17;18.10;99.90
20915;DHT22;10617;52.032;5.298;2023-07-31T11:37:19;18.20;99.90
20915;DHT22;10617;52.032;5.298;2023-07-31T11:41:21;18.20;99.90
20915;DHT22;10617;52.032;5.298;2023-07-31T11:45:24;18.20;99.90
20915;DHT22;10617;52.032;5.298;2023-07-31T11:49:26;18.20;99.90
20915;DHT22;10617;52.032;5.298;2023-07-31T11:53:38;18.30;99.90
20915;DHT22;10617;52.032;5.298;2023-07-31T11:57:41;18.30;99.90
20915;DHT22;10617;52.032;5.298;2023-07-31T12:01:44;18.30;99.90
20915;DHT22;10617;52.032;5.298;2023-07-31T12:05:49;18.30;99.90
20915;DHT22;10617;52.032;5.298;2023-07-31T12:09:54;18.30;99.90
20915;DHT22;10617;52.032;5.298;2023-07-31T12:13:56;18.30;99.90
20915;DHT22;10617;52.032;5.298;2023-07-31T12:17:58;18.40;99.90
20915;DHT22;10617;52.032;5.298;2023-07-31T12:22:00;18.30;99.90
20915;DHT22;10617;52.032;5.298;2023-07-31T12:30:04;18.20;99.90
20915;DHT22;10617;52.032;5.298;2023-07-31T12:34:14;18.30;99.90
20915;DHT22;10617;52.032;5.298;2023-07-31T12:38:15;18.30;99.90
20915;DHT22;10617;52.032;5.298;2023-07-31T12:42:17;18.40;99.90
20915;DHT22;10617;52.032;5.298;2023-07-31T12:46:19;18.40;99.90
20915;DHT22;10617;52.032;5.298;2023-07-31T12:50:20;18.40;99.90
20915;DHT22;10617;52.032;5.298;2023-07-31T12:54:22;18.50;99.90
20915;DHT22;10617;52.032;5.298;2023-07-31T12:58:24;18.50;99.90
20915;DHT22;10617;52.032;5.298;2023-07-31T13:02:26;18.60;99.90
20915;DHT22;10617;52.032;5.298;2023-07-31T13:06:28;18.70;99.90
20915;DHT22;10617;52.032;5.298;2023-07-31T13:10:30;18.70;99.90
20915;DHT22;10617;52.032;5.298;2023-07-31T13:14:31;18.80;99.90
20915;DHT22;10617;52.032;5.298;2023-07-31T13:18:33;18.80;99.90
20915;DHT22;10617;52.032;5.298;2023-07-31T13:22:35;18.90;99.90
20915;DHT22;10617;52.032;5.298;2023-07-31T13:26:36;19.00;99.90
20915;DHT22;10617;52.032;5.298;2023-07-31T13:30:38;18.90;99.90
20915;DHT22;10617;52.032;5.298;2023-07-31T13:34:40;18.90;99.90
20915;DHT22;10617;52.032;5.298;2023-07-31T13:38:42;18.90;99.90
20915;DHT22;10617;52.032;5.298;2023-07-31T13:42:43;18.80;99.90
20915;DHT22;10617;52.032;5.298;2023-07-31T13:46:45;18.90;99.90
20915;DHT22;10617;52.032;5.298;2023-07-31T13:50:47;18.90;99.90
20915;DHT22;10617;52.032;5.298;2023-07-31T13:54:48;18.90;99.90
20915;DHT22;10617;52.032;5.298;2023-07-31T13:58:50;18.90;99.90
20915;DHT22;10617;52.032;5.298;2023-07-31T14:02:52;18.80;99.90
20915;DHT22;10617;52.032;5.298;2023-07-31T14:06:53;18.80;99.90
20915;DHT22;10617;52.032;5.298;2023-07-31T14:10:56;18.70;99.90
20915;DHT22;10617;52.032;5.298;2023-07-31T14:14:58;18.70;99.90
20915;DHT22;10617;52.032;5.298;2023-07-31T14:19:00;18.70;99.90
20915;DHT22;10617;52.032;5.298;2023-07-31T14:23:02;18.70;99.90
20915;DHT22;10617;52.032;5.298;2023-07-31T14:27:04;18.70;99.90
20915;DHT22;10617;52.032;5.298;2023-07-31T14:31:06;18.70;99.90
20915;DHT22;10617;52.032;5.298;2023-07-31T14:35:07;18.60;99.90
20915;DHT22;10617;52.032;5.298;2023-07-31T14:39:09;18.60;99.90
20915;DHT22;10617;52.032;5.298;2023-07-31T14:43:11;18.60;99.90
20915;DHT22;10617;52.032;5.298;2023-07-31T14:47:13;18.60;99.90
20915;DHT22;10617;52.032;5.298;2023-07-31T14:51:14;18.60;99.90
20915;DHT22;10617;52.032;5.298;2023-07-31T14:55:16;18.50;99.90
20915;DHT22;10617;52.032;5.298;2023-07-31T14:59:18;18.50;99.90
20915;DHT22;10617;52.032;5.298;2023-07-31T15:03:19;18.50;99.90
20915;DHT22;10617;52.032;5.298;2023-07-31T15:07:21;18.50;99.90
20915;DHT22;10617;52.032;5.298;2023-07-31T15:11:23;18.50;99.90
20915;DHT22;10617;52.032;5.298;2023-07-31T15:15:24;18.50;99.90
20915;DHT22;10617;52.032;5.298;2023-07-31T15:19:26;18.50;99.90
20915;DHT22;10617;52.032;5.298;2023-07-31T15:23:28;18.50;99.90
20915;DHT22;10617;52.032;5.298;2023-07-31T15:27:29;18.50;99.90
20915;DHT22;10617;52.032;5.298;2023-07-31T15:31:31;18.50;99.90
20915;DHT22;10617;52.032;5.298;2023-07-31T15:35:33;18.50;99.90
20915;DHT22;10617;52.032;5.298;2023-07-31T15:39:34;18.40;99.90
20915;DHT22;10617;52.032;5.298;2023-07-31T15:43:36;18.40;99.90
20915;DHT22;10617;52.032;5.298;2023-07-31T15:47:38;18.40;99.90
20915;DHT22;10617;52.032;5.298;2023-07-31T15:51:40;18.40;99.90
20915;DHT22;10617;52.032;5.298;2023-07-31T15:55:42;18.40;99.90
20915;DHT22;10617;52.032;5.298;2023-07-31T15:59:43;18.40;99.90
20915;DHT22;10617;52.032;5.298;2023-07-31T16:03:45;18.40;99.90
20915;DHT22;10617;52.032;5.298;2023-07-31T16:22:59;18.40;99.90
20915;DHT22;10617;52.032;5.298;2023-07-31T16:27:01;18.30;99.90
20915;DHT22;10617;52.032;5.298;2023-07-31T16:31:02;18.30;99.90
20915;DHT22;10617;52.032;5.298;2023-07-31T16:35:04;18.20;99.90
20915;DHT22;10617;52.032;5.298;2023-07-31T16:39:06;18.20;99.90
20915;DHT22;10617;52.032;5.298;2023-07-31T16:43:07;18.20;99.90
20915;DHT22;10617;52.032;5.298;2023-07-31T16:47:09;18.20;99.90
20915;DHT22;10617;52.032;5.298;2023-07-31T16:51:11;18.20;99.90
20915;DHT22;10617;52.032;5.298;2023-07-31T16:55:12;18.10;99.90
20915;DHT22;10617;52.032;5.298;2023-07-31T16:59:17;18.10;99.90
20915;DHT22;10617;52.032;5.298;2023-07-31T17:03:19;18.10;99.90
20915;DHT22;10617;52.032;5.298;2023-07-31T17:07:21;18.10;99.90
20915;DHT22;10617;52.032;5.298;2023-07-31T17:11:23;18.10;99.90
20915;DHT22;10617;52.032;5.298;2023-07-31T17:15:25;18.10;99.90
20915;DHT22;10617;52.032;5.298;2023-07-31T17:19:27;18.10;99.90
20915;DHT22;10617;52.032;5.298;2023-07-31T17:23:28;18.10;99.90
20915;DHT22;10617;52.032;5.298;2023-07-31T17:27:30;18.10;99.90
20915;DHT22;10617;52.032;5.298;2023-07-31T17:31:32;18.10;99.90
20915;DHT22;10617;52.032;5.298;2023-07-31T17:35:36;18.20;99.90
20915;DHT22;10617;52.032;5.298;2023-07-31T17:39:38;18.20;99.90
20915;DHT22;10617;52.032;5.298;2023-07-31T17:43:39;18.20;99.90
20915;DHT22;10617;52.032;5.298;2023-07-31T17:47:41;18.20;99.90
20915;DHT22;10617;52.032;5.298;2023-07-31T17:51:42;18.20;99.90
20915;DHT22;10617;52.032;5.298;2023-07-31T17:55:44;18.20;99.90
20915;DHT22;10617;52.032;5.298;2023-07-31T17:59:46;18.20;99.90
20915;DHT22;10617;52.032;5.298;2023-07-31T18:03:49;18.20;99.90
20915;DHT22;10617;52.032;5.298;2023-07-31T18:07:51;18.20;99.90
20915;DHT22;10617;52.032;5.298;2023-07-31T18:11:53;18.20;99.90
20915;DHT22;10617;52.032;5.298;2023-07-31T18:15:54;18.20;99.90
20915;DHT22;10617;52.032;5.298;2023-07-31T18:19:56;18.20;99.90
20915;DHT22;10617;52.032;5.298;2023-07-31T18:23:58;18.20;99.90
20915;DHT22;10617;52.032;5.298;2023-07-31T18:28:01;18.20;99.90
20915;DHT22;10617;52.032;5.298;2023-07-31T18:32:03;18.20;99.90
20915;DHT22;10617;52.032;5.298;2023-07-31T18:36:04;18.20;99.90
20915;DHT22;10617;52.032;5.298;2023-07-31T18:40:06;18.20;99.90
20915;DHT22;10617;52.032;5.298;2023-07-31T18:44:08;18.20;99.90
20915;DHT22;10617;52.032;5.298;2023-07-31T18:58:17;18.20;99.90
20915;DHT22;10617;52.032;5.298;2023-07-31T19:02:18;18.20;99.90
20915;DHT22;10617;52.032;5.298;2023-07-31T19:06:20;18.10;99.90
20915;DHT22;10617;52.032;5.298;2023-07-31T19:10:22;18.20;99.90
20915;DHT22;10617;52.032;5.298;2023-07-31T19:14:24;18.20;99.90
20915;DHT22;10617;52.032;5.298;2023-07-31T19:18:25;18.20;99.90
20915;DHT22;10617;52.032;5.298;2023-07-31T19:22:27;18.10;99.90
20915;DHT22;10617;52.032;5.298;2023-07-31T19:26:29;18.00;99.90
20915;DHT22;10617;52.032;5.298;2023-07-31T19:30:31;18.00;99.90
20915;DHT22;10617;52.032;5.298;2023-07-31T19:34:32;17.90;99.90
20915;DHT22;10617;52.032;5.298;2023-07-31T19:38:34;17.80;99.90
20915;DHT22;10617;52.032;5.298;2023-07-31T19:42:36;17.70;99.90
20915;DHT22;10617;52.032;5.298;2023-07-31T19:46:38;17.70;99.90
20915;DHT22;10617;52.032;5.298;2023-07-31T19:50:39;17.70;99.90
20915;DHT22;10617;52.032;5.298;2023-07-31T19:54:41;17.70;99.90
20915;DHT22;10617;52.032;5.298;2023-07-31T19:58:43;17.70;99.90
20915;DHT22;10617;52.032;5.298;2023-07-31T20:02:45;17.70;99.90
20915;DHT22;10617;52.032;5.298;2023-07-31T20:06:46;17.70;99.90
20915;DHT22;10617;52.032;5.298;2023-07-31T20:10:48;17.70;99.90
20915;DHT22;10617;52.032;5.298;2023-07-31T20:14:50;17.80;99.90
20915;DHT22;10617;52.032;5.298;2023-07-31T20:18:51;17.80;99.90
20915;DHT22;10617;52.032;5.298;2023-07-31T20:22:53;17.80;99.90
20915;DHT22;10617;52.032;5.298;2023-07-31T20:26:55;17.80;99.90
20915;DHT22;10617;52.032;5.298;2023-07-31T20:30:57;17.80;99.90
20915;DHT22;10617;52.032;5.298;2023-07-31T20:34:58;17.80;99.90
20915;DHT22;10617;52.032;5.298;2023-07-31T20:39:00;17.80;99.90
20915;DHT22;10617;52.032;5.298;2023-07-31T20:43:02;17.80;99.90
20915;DHT22;10617;52.032;5.298;2023-07-31T20:47:03;17.80;99.90
20915;DHT22;10617;52.032;5.298;2023-07-31T20:51:05;17.80;99.90
20915;DHT22;10617;52.032;5.298;2023-07-31T20:55:07;17.80;99.90
20915;DHT22;10617;52.032;5.298;2023-07-31T20:59:09;17.70;99.90
20915;DHT22;10617;52.032;5.298;2023-07-31T21:03:11;17.70;99.90
20915;DHT22;10617;52.032;5.298;2023-07-31T21:07:12;17.70;99.90
20915;DHT22;10617;52.032;5.298;2023-07-31T21:11:16;17.60;99.90
20915;DHT22;10617;52.032;5.298;2023-07-31T21:15:18;17.70;99.90
20915;DHT22;10617;52.032;5.298;2023-07-31T21:24:23;17.70;99.90
20915;DHT22;10617;52.032;5.298;2023-07-31T21:28:25;17.70;99.90
20915;DHT22;10617;52.032;5.298;2023-07-31T21:32:27;17.70;99.90
20915;DHT22;10617;52.032;5.298;2023-07-31T21:36:28;17.70;99.90
20915;DHT22;10617;52.032;5.298;2023-07-31T21:40:30;17.70;99.90
20915;DHT22;10617;52.032;5.298;2023-07-31T21:44:32;17.70;99.90
20915;DHT22;10617;52.032;5.298;2023-07-31T21:48:33;17.70;99.90
20915;DHT22;10617;52.032;5.298;2023-07-31T21:52:35;17.60;99.90
20915;DHT22;10617;52.032;5.298;2023-07-31T21:56:37;17.60;99.90
20915;DHT22;10617;52.032;5.298;2023-07-31T22:00:39;17.60;99.90
20915;DHT22;10617;52.032;5.298;2023-07-31T22:04:40;17.60;99.90
20915;DHT22;10617;52.032;5.298;2023-07-31T22:08:45;17.50;99.90
20915;DHT22;10617;52.032;5.298;2023-07-31T22:12:48;17.50;99.90
20915;DHT22;10617;52.032;5.298;2023-07-31T22:16:50;17.50;99.90
20915;DHT22;10617;52.032;5.298;2023-07-31T22:20:52;17.50;99.90
20915;DHT22;10617;52.032;5.298;2023-07-31T22:24:53;17.50;99.90
20915;DHT22;10617;52.032;5.298;2023-07-31T22:28:55;17.50;99.90
20915;DHT22;10617;52.032;5.298;2023-07-31T22:32:57;17.50;99.90
20915;DHT22;10617;52.032;5.298;2023-07-31T22:36:58;17.40;99.90
20915;DHT22;10617;52.032;5.298;2023-07-31T22:41:00;17.50;99.90
20915;DHT22;10617;52.032;5.298;2023-07-31T22:45:02;17.50;99.90
20915;DHT22;10617;52.032;5.298;2023-07-31T22:49:04;17.40;99.90
20915;DHT22;10617;52.032;5.298;2023-07-31T22:53:06;17.40;99.90
20915;DHT22;10617;52.032;5.298;2023-07-31T22:57:07;17.40;99.90
20915;DHT22;10617;52.032;5.298;2023-07-31T23:01:09;17.40;99.90
20915;DHT22;10617;52.032;5.298;2023-07-31T23:05:11;17.30;99.90
20915;DHT22;10617;52.032;5.298;2023-07-31T23:09:13;17.20;99.90
20915;DHT22;10617;52.032;5.298;2023-07-31T23:13:15;17.00;99.90
20915;DHT22;10617;52.032;5.298;2023-07-31T23:17:17;16.90;99.90
20915;DHT22;10617;52.032;5.298;2023-07-31T23:21:19;16.80;99.90
20915;DHT22;10617;52.032;5.298;2023-07-31T23:25:20;16.80;99.90
20915;DHT22;10617;52.032;5.298;2023-07-31T23:29:22;16.80;99.90
20915;DHT22;10617;52.032;5.298;2023-07-31T23:33:24;16.80;99.90
20915;DHT22;10617;52.032;5.298;2023-07-31T23:37:25;16.80;99.90
20915;DHT22;10617;52.032;5.298;2023-07-31T23:41:27;16.90;99.90
20915;DHT22;10617;52.032;5.298;2023-07-31T23:45:28;16.90;99.90
20915;DHT22;10617;52.032;5.298;2023-07-31T23:49:30;16.90;99.90
20915;DHT22;10617;52.032;5.298;2023-07-31T23:53:32;16.90;99.90
20915;DHT22;10617;52.032;5.298;2023-07-31T23:57:34;16.90;99.90
